Portada
METAR-TAF:

METAR-TAF

Aeroports :

Biskra, Algèria

latitud: 34-48N, longitud: 005-44E, altitud: 87 m

Observació

L'informe es va fer fa 28 minuts, a les 19:00 UTC
Vent 3 kt del Sud
Temperatura 32°C
Humitat 15%
Pressió 1016 hPa
Visibilitat 10 km o més
Escasses núvols a una alçada de 4000 ft

METAR: DAUB 261900Z 17003KT 9999 FEW040 32/02 Q1016

Hora: 20:28 (19:28 UTC)

Pronòstic

L'informe es va fer fa 8 hores i 28 minuts, a les 11:00 UTC
Pronòstic vàlid del 26 a les 12 UTC al 27 a les 12 UTC
Vent 8 kt del Oest/Sud-Oest
Visibilitat 10 km o més
sense núvols per sota de 1500 mi sense presència de cumulonimbus.
Probabilitat 30% :
Temporalment
l' 26 a les 12 UTC al 26 a les 18 UTC
Vent 12 kt del Sud/Sud-Est

TAF: DAUB 261100Z 2612/2712 24008KT CAVOK PROB30 TEMPO 2612/2618 16012KT

Observacions i pronòstics meteorològics de més de 4000 aeroports (METAR i TAF).

Les estacions disponibles són els punts grocs i vermells al mapa.

Posi el ratolí al punt desitjat per veure el nom de l'estació.

Feu clic per veure les observacions i els pronòstics meteorològics.

Per canviar el mapa: feu clic els botons verds amb una creu de color negre per apropar; al botó verd amb un guió per allunyar la imatge; o en les fletxes verdes per a mapes adjacents.


METAR-TAF: